sensor_id;sensor_type;location;lat;lon;timestamp;temperature;humidity
6439;DHT22;3252;52.540;13.290;2023-04-08T00:01:01;5.80;99.90
6439;DHT22;3252;52.540;13.290;2023-04-08T00:03:03;5.80;99.90
6439;DHT22;3252;52.540;13.290;2023-04-08T00:05:07;5.80;99.90
6439;DHT22;3252;52.540;13.290;2023-04-08T00:07:10;5.80;99.90
6439;DHT22;3252;52.540;13.290;2023-04-08T00:09:13;5.80;99.90
6439;DHT22;3252;52.540;13.290;2023-04-08T00:11:15;5.90;99.90
6439;DHT22;3252;52.540;13.290;2023-04-08T00:13:17;5.90;99.90
6439;DHT22;3252;52.540;13.290;2023-04-08T00:15:20;5.80;99.90
6439;DHT22;3252;52.540;13.290;2023-04-08T00:17:23;5.80;99.90
6439;DHT22;3252;52.540;13.290;2023-04-08T00:19:25;5.80;99.90
6439;DHT22;3252;52.540;13.290;2023-04-08T00:21:31;5.80;99.90
6439;DHT22;3252;52.540;13.290;2023-04-08T00:23:34;5.80;99.90
6439;DHT22;3252;52.540;13.290;2023-04-08T00:25:39;5.80;99.90
6439;DHT22;3252;52.540;13.290;2023-04-08T00:27:41;5.80;99.90
6439;DHT22;3252;52.540;13.290;2023-04-08T00:29:43;5.80;99.90
6439;DHT22;3252;52.540;13.290;2023-04-08T00:31:46;5.80;99.90
6439;DHT22;3252;52.540;13.290;2023-04-08T00:33:49;5.80;99.90
6439;DHT22;3252;52.540;13.290;2023-04-08T00:35:52;5.80;99.90
6439;DHT22;3252;52.540;13.290;2023-04-08T00:37:55;5.80;99.90
6439;DHT22;3252;52.540;13.290;2023-04-08T00:39:58;5.80;99.90
6439;DHT22;3252;52.540;13.290;2023-04-08T00:42:00;5.80;99.90
6439;DHT22;3252;52.540;13.290;2023-04-08T00:44:03;5.80;99.90
6439;DHT22;3252;52.540;13.290;2023-04-08T00:46:06;5.80;99.90
6439;DHT22;3252;52.540;13.290;2023-04-08T00:48:08;5.80;99.90
6439;DHT22;3252;52.540;13.290;2023-04-08T00:50:11;5.80;99.90
6439;DHT22;3252;52.540;13.290;2023-04-08T00:52:13;5.80;99.90
6439;DHT22;3252;52.540;13.290;2023-04-08T00:54:17;5.80;99.90
6439;DHT22;3252;52.540;13.290;2023-04-08T00:56:19;5.70;99.90
6439;DHT22;3252;52.540;13.290;2023-04-08T00:58:22;5.70;99.90
6439;DHT22;3252;52.540;13.290;2023-04-08T01:00:24;5.70;99.90
6439;DHT22;3252;52.540;13.290;2023-04-08T01:02:33;5.70;99.90
6439;DHT22;3252;52.540;13.290;2023-04-08T01:04:43;5.70;99.90
6439;DHT22;3252;52.540;13.290;2023-04-08T01:06:50;5.80;99.90
6439;DHT22;3252;52.540;13.290;2023-04-08T01:08:55;5.70;99.90
6439;DHT22;3252;52.540;13.290;2023-04-08T01:11:01;5.80;99.90
6439;DHT22;3252;52.540;13.290;2023-04-08T01:13:07;5.70;99.90
6439;DHT22;3252;52.540;13.290;2023-04-08T01:15:11;5.80;99.90
6439;DHT22;3252;52.540;13.290;2023-04-08T01:17:14;5.80;99.90
6439;DHT22;3252;52.540;13.290;2023-04-08T01:19:25;5.80;99.90
6439;DHT22;3252;52.540;13.290;2023-04-08T01:21:32;5.80;99.90
6439;DHT22;3252;52.540;13.290;2023-04-08T01:23:42;5.80;99.90
6439;DHT22;3252;52.540;13.290;2023-04-08T01:25:50;5.80;99.90
6439;DHT22;3252;52.540;13.290;2023-04-08T01:27:55;5.80;99.90
6439;DHT22;3252;52.540;13.290;2023-04-08T01:30:12;5.80;99.90
6439;DHT22;3252;52.540;13.290;2023-04-08T01:32:15;5.70;99.90
6439;DHT22;3252;52.540;13.290;2023-04-08T01:34:18;5.70;99.90
6439;DHT22;3252;52.540;13.290;2023-04-08T01:36:22;5.70;99.90
6439;DHT22;3252;52.540;13.290;2023-04-08T01:38:27;5.70;99.90
6439;DHT22;3252;52.540;13.290;2023-04-08T01:40:31;5.60;99.90
6439;DHT22;3252;52.540;13.290;2023-04-08T01:42:39;5.70;99.90
6439;DHT22;3252;52.540;13.290;2023-04-08T01:44:46;5.60;99.90
6439;DHT22;3252;52.540;13.290;2023-04-08T01:46:49;5.70;99.90
6439;DHT22;3252;52.540;13.290;2023-04-08T01:48:53;5.70;99.90
6439;DHT22;3252;52.540;13.290;2023-04-08T01:50:57;5.70;99.90
6439;DHT22;3252;52.540;13.290;2023-04-08T01:53:01;5.70;99.90
6439;DHT22;3252;52.540;13.290;2023-04-08T01:55:07;5.70;99.90
6439;DHT22;3252;52.540;13.290;2023-04-08T01:57:11;5.70;99.90
6439;DHT22;3252;52.540;13.290;2023-04-08T01:59:18;5.70;99.90
6439;DHT22;3252;52.540;13.290;2023-04-08T02:01:22;5.70;99.90
6439;DHT22;3252;52.540;13.290;2023-04-08T02:03:28;5.70;99.90
6439;DHT22;3252;52.540;13.290;2023-04-08T02:05:31;5.70;99.90
6439;DHT22;3252;52.540;13.290;2023-04-08T02:07:33;5.70;99.90
6439;DHT22;3252;52.540;13.290;2023-04-08T02:09:36;5.70;99.90
6439;DHT22;3252;52.540;13.290;2023-04-08T02:11:59;5.80;99.90
6439;DHT22;3252;52.540;13.290;2023-04-08T02:14:01;5.80;99.90
6439;DHT22;3252;52.540;13.290;2023-04-08T02:16:11;5.80;99.90
6439;DHT22;3252;52.540;13.290;2023-04-08T02:18:16;5.80;99.90
6439;DHT22;3252;52.540;13.290;2023-04-08T02:20:33;5.80;99.90
6439;DHT22;3252;52.540;13.290;2023-04-08T02:22:43;5.70;99.90
6439;DHT22;3252;52.540;13.290;2023-04-08T02:24:49;5.80;99.90
6439;DHT22;3252;52.540;13.290;2023-04-08T02:26:53;5.80;99.90
6439;DHT22;3252;52.540;13.290;2023-04-08T02:28:59;5.80;99.90
6439;DHT22;3252;52.540;13.290;2023-04-08T02:31:03;5.80;99.90
6439;DHT22;3252;52.540;13.290;2023-04-08T02:33:10;5.80;99.90
6439;DHT22;3252;52.540;13.290;2023-04-08T02:35:14;5.80;99.90
6439;DHT22;3252;52.540;13.290;2023-04-08T02:37:17;5.80;99.90
6439;DHT22;3252;52.540;13.290;2023-04-08T02:39:19;5.80;99.90
6439;DHT22;3252;52.540;13.290;2023-04-08T02:41:27;5.80;99.90
6439;DHT22;3252;52.540;13.290;2023-04-08T02:43:30;5.80;99.90
6439;DHT22;3252;52.540;13.290;2023-04-08T02:45:37;5.80;99.90
6439;DHT22;3252;52.540;13.290;2023-04-08T02:47:43;5.80;99.90
6439;DHT22;3252;52.540;13.290;2023-04-08T02:49:46;5.80;99.90
6439;DHT22;3252;52.540;13.290;2023-04-08T02:51:52;5.80;99.90
6439;DHT22;3252;52.540;13.290;2023-04-08T02:53:54;5.80;99.90
6439;DHT22;3252;52.540;13.290;2023-04-08T02:55:57;5.80;99.90
6439;DHT22;3252;52.540;13.290;2023-04-08T02:57:59;5.80;99.90
6439;DHT22;3252;52.540;13.290;2023-04-08T03:00:02;5.80;99.90
6439;DHT22;3252;52.540;13.290;2023-04-08T03:02:05;5.80;99.90
6439;DHT22;3252;52.540;13.290;2023-04-08T03:04:07;5.70;99.90
6439;DHT22;3252;52.540;13.290;2023-04-08T03:06:11;5.80;99.90
6439;DHT22;3252;52.540;13.290;2023-04-08T03:08:14;5.80;99.90
6439;DHT22;3252;52.540;13.290;2023-04-08T03:10:16;5.80;99.90
6439;DHT22;3252;52.540;13.290;2023-04-08T03:12:19;5.90;99.90
6439;DHT22;3252;52.540;13.290;2023-04-08T03:14:21;5.80;99.90
6439;DHT22;3252;52.540;13.290;2023-04-08T03:16:24;5.80;99.90
6439;DHT22;3252;52.540;13.290;2023-04-08T03:18:26;5.90;99.90
6439;DHT22;3252;52.540;13.290;2023-04-08T03:20:28;5.90;99.90
6439;DHT22;3252;52.540;13.290;2023-04-08T03:22:35;5.80;99.90
6439;DHT22;3252;52.540;13.290;2023-04-08T03:24:37;5.80;99.90
6439;DHT22;3252;52.540;13.290;2023-04-08T03:26:40;5.80;99.90
6439;DHT22;3252;52.540;13.290;2023-04-08T03:28:42;5.80;99.90
6439;DHT22;3252;52.540;13.290;2023-04-08T03:30:44;5.80;99.90
6439;DHT22;3252;52.540;13.290;2023-04-08T03:32:46;5.80;99.90
6439;DHT22;3252;52.540;13.290;2023-04-08T03:34:49;5.80;99.90
6439;DHT22;3252;52.540;13.290;2023-04-08T03:36:52;5.80;99.90
6439;DHT22;3252;52.540;13.290;2023-04-08T03:38:55;5.80;99.90
6439;DHT22;3252;52.540;13.290;2023-04-08T03:40:57;5.80;99.90
6439;DHT22;3252;52.540;13.290;2023-04-08T03:43:00;5.80;99.90
6439;DHT22;3252;52.540;13.290;2023-04-08T03:45:03;5.80;99.90
6439;DHT22;3252;52.540;13.290;2023-04-08T03:47:05;5.80;99.90
6439;DHT22;3252;52.540;13.290;2023-04-08T03:49:07;5.70;99.90
6439;DHT22;3252;52.540;13.290;2023-04-08T03:51:13;5.80;99.90
6439;DHT22;3252;52.540;13.290;2023-04-08T03:53:15;5.80;99.90
6439;DHT22;3252;52.540;13.290;2023-04-08T03:55:19;5.80;99.90
6439;DHT22;3252;52.540;13.290;2023-04-08T03:57:21;5.80;99.90
6439;DHT22;3252;52.540;13.290;2023-04-08T03:59:23;5.80;99.90
6439;DHT22;3252;52.540;13.290;2023-04-08T04:01:26;5.90;99.90
6439;DHT22;3252;52.540;13.290;2023-04-08T04:03:29;5.90;99.90
6439;DHT22;3252;52.540;13.290;2023-04-08T04:05:31;5.80;99.90
6439;DHT22;3252;52.540;13.290;2023-04-08T04:07:33;5.90;99.90
6439;DHT22;3252;52.540;13.290;2023-04-08T04:09:36;5.80;99.90
6439;DHT22;3252;52.540;13.290;2023-04-08T04:11:39;5.80;99.90
6439;DHT22;3252;52.540;13.290;2023-04-08T04:13:42;5.80;99.90
6439;DHT22;3252;52.540;13.290;2023-04-08T04:15:44;5.90;99.90
6439;DHT22;3252;52.540;13.290;2023-04-08T04:17:47;5.90;99.90
6439;DHT22;3252;52.540;13.290;2023-04-08T04:19:50;5.90;99.90
6439;DHT22;3252;52.540;13.290;2023-04-08T04:21:52;5.90;99.90
6439;DHT22;3252;52.540;13.290;2023-04-08T04:23:55;5.90;99.90
6439;DHT22;3252;52.540;13.290;2023-04-08T04:26:00;6.00;99.90
6439;DHT22;3252;52.540;13.290;2023-04-08T04:28:04;6.00;99.90
6439;DHT22;3252;52.540;13.290;2023-04-08T04:30:07;6.00;99.90
6439;DHT22;3252;52.540;13.290;2023-04-08T04:32:10;6.00;99.90
6439;DHT22;3252;52.540;13.290;2023-04-08T04:34:12;5.90;99.90
6439;DHT22;3252;52.540;13.290;2023-04-08T04:36:15;5.90;99.90
6439;DHT22;3252;52.540;13.290;2023-04-08T04:38:17;5.90;99.90
6439;DHT22;3252;52.540;13.290;2023-04-08T04:40:19;5.90;99.90
6439;DHT22;3252;52.540;13.290;2023-04-08T04:42:21;5.90;99.90
6439;DHT22;3252;52.540;13.290;2023-04-08T04:44:25;5.90;99.90
6439;DHT22;3252;52.540;13.290;2023-04-08T04:46:30;6.00;99.90
6439;DHT22;3252;52.540;13.290;2023-04-08T04:48:33;6.00;99.90
6439;DHT22;3252;52.540;13.290;2023-04-08T04:50:35;6.00;99.90
6439;DHT22;3252;52.540;13.290;2023-04-08T04:52:37;6.00;99.90
6439;DHT22;3252;52.540;13.290;2023-04-08T04:54:41;6.00;99.90
6439;DHT22;3252;52.540;13.290;2023-04-08T04:56:43;6.00;99.90
6439;DHT22;3252;52.540;13.290;2023-04-08T04:58:46;6.00;99.90
6439;DHT22;3252;52.540;13.290;2023-04-08T05:00:50;6.10;99.90
6439;DHT22;3252;52.540;13.290;2023-04-08T05:02:52;6.10;99.90
6439;DHT22;3252;52.540;13.290;2023-04-08T05:04:54;6.00;99.90
6439;DHT22;3252;52.540;13.290;2023-04-08T05:07:00;6.00;99.90
6439;DHT22;3252;52.540;13.290;2023-04-08T05:09:06;6.00;99.90
6439;DHT22;3252;52.540;13.290;2023-04-08T05:11:09;6.00;99.90
6439;DHT22;3252;52.540;13.290;2023-04-08T05:13:11;6.00;99.90
6439;DHT22;3252;52.540;13.290;2023-04-08T05:15:13;6.00;99.90
6439;DHT22;3252;52.540;13.290;2023-04-08T05:17:17;6.00;99.90
6439;DHT22;3252;52.540;13.290;2023-04-08T05:19:21;6.00;99.90
6439;DHT22;3252;52.540;13.290;2023-04-08T05:21:23;6.00;99.90
6439;DHT22;3252;52.540;13.290;2023-04-08T05:23:25;6.00;99.90
6439;DHT22;3252;52.540;13.290;2023-04-08T05:25:29;6.00;99.90
6439;DHT22;3252;52.540;13.290;2023-04-08T05:27:31;5.90;99.90
6439;DHT22;3252;52.540;13.290;2023-04-08T05:29:34;5.90;99.90
6439;DHT22;3252;52.540;13.290;2023-04-08T05:31:36;6.00;99.90
6439;DHT22;3252;52.540;13.290;2023-04-08T05:33:40;6.00;99.90
6439;DHT22;3252;52.540;13.290;2023-04-08T05:35:42;6.00;99.90
6439;DHT22;3252;52.540;13.290;2023-04-08T05:37:44;6.10;99.90
6439;DHT22;3252;52.540;13.290;2023-04-08T05:39:46;6.10;99.90
6439;DHT22;3252;52.540;13.290;2023-04-08T05:41:49;6.10;99.90
6439;DHT22;3252;52.540;13.290;2023-04-08T05:43:51;6.10;99.90
6439;DHT22;3252;52.540;13.290;2023-04-08T05:45:53;6.10;99.90
6439;DHT22;3252;52.540;13.290;2023-04-08T05:47:56;6.10;99.90
6439;DHT22;3252;52.540;13.290;2023-04-08T05:49:59;6.20;99.90
6439;DHT22;3252;52.540;13.290;2023-04-08T05:52:03;6.20;99.90
6439;DHT22;3252;52.540;13.290;2023-04-08T05:54:06;6.20;99.90
6439;DHT22;3252;52.540;13.290;2023-04-08T05:56:09;6.20;99.90
6439;DHT22;3252;52.540;13.290;2023-04-08T05:58:12;6.20;99.90
6439;DHT22;3252;52.540;13.290;2023-04-08T06:00:14;6.20;99.90
6439;DHT22;3252;52.540;13.290;2023-04-08T06:02:17;6.30;99.90
6439;DHT22;3252;52.540;13.290;2023-04-08T06:04:20;6.30;99.90
6439;DHT22;3252;52.540;13.290;2023-04-08T06:06:23;6.40;99.90
6439;DHT22;3252;52.540;13.290;2023-04-08T06:08:26;6.30;99.90
6439;DHT22;3252;52.540;13.290;2023-04-08T06:10:28;6.30;99.90
6439;DHT22;3252;52.540;13.290;2023-04-08T06:12:30;6.40;99.90
6439;DHT22;3252;52.540;13.290;2023-04-08T06:14:38;6.40;99.90
6439;DHT22;3252;52.540;13.290;2023-04-08T06:16:40;6.50;99.90
6439;DHT22;3252;52.540;13.290;2023-04-08T06:18:43;6.50;99.90
6439;DHT22;3252;52.540;13.290;2023-04-08T06:20:46;6.50;99.90
6439;DHT22;3252;52.540;13.290;2023-04-08T06:22:49;6.50;99.90
6439;DHT22;3252;52.540;13.290;2023-04-08T06:24:53;6.50;99.90
6439;DHT22;3252;52.540;13.290;2023-04-08T06:26:55;6.60;99.90
6439;DHT22;3252;52.540;13.290;2023-04-08T06:28:57;6.50;99.90
6439;DHT22;3252;52.540;13.290;2023-04-08T06:31:00;6.60;99.90
6439;DHT22;3252;52.540;13.290;2023-04-08T06:33:02;6.50;99.90
6439;DHT22;3252;52.540;13.290;2023-04-08T06:35:06;6.50;99.90
6439;DHT22;3252;52.540;13.290;2023-04-08T06:37:08;6.50;99.90
6439;DHT22;3252;52.540;13.290;2023-04-08T06:39:12;6.60;99.90
6439;DHT22;3252;52.540;13.290;2023-04-08T06:41:14;6.70;99.90
6439;DHT22;3252;52.540;13.290;2023-04-08T06:43:17;6.70;99.90
6439;DHT22;3252;52.540;13.290;2023-04-08T06:45:19;6.70;99.90
6439;DHT22;3252;52.540;13.290;2023-04-08T06:47:21;6.70;99.90
6439;DHT22;3252;52.540;13.290;2023-04-08T06:49:24;6.80;99.90
6439;DHT22;3252;52.540;13.290;2023-04-08T06:51:26;6.80;99.90
6439;DHT22;3252;52.540;13.290;2023-04-08T06:53:36;6.80;99.90
6439;DHT22;3252;52.540;13.290;2023-04-08T06:55:40;6.90;99.90
6439;DHT22;3252;52.540;13.290;2023-04-08T06:57:42;6.80;99.90
6439;DHT22;3252;52.540;13.290;2023-04-08T06:59:44;6.80;99.90
6439;DHT22;3252;52.540;13.290;2023-04-08T07:01:47;6.90;99.90
6439;DHT22;3252;52.540;13.290;2023-04-08T07:03:49;6.90;99.90
6439;DHT22;3252;52.540;13.290;2023-04-08T07:06:16;7.00;99.90
6439;DHT22;3252;52.540;13.290;2023-04-08T07:08:18;6.90;99.90
6439;DHT22;3252;52.540;13.290;2023-04-08T07:10:20;6.90;99.90
6439;DHT22;3252;52.540;13.290;2023-04-08T07:12:24;6.90;99.90
6439;DHT22;3252;52.540;13.290;2023-04-08T07:14:26;6.90;99.90
6439;DHT22;3252;52.540;13.290;2023-04-08T07:16:29;6.90;99.90
6439;DHT22;3252;52.540;13.290;2023-04-08T07:18:33;7.00;99.90
6439;DHT22;3252;52.540;13.290;2023-04-08T07:20:35;6.90;99.90
6439;DHT22;3252;52.540;13.290;2023-04-08T07:22:38;6.90;99.90
6439;DHT22;3252;52.540;13.290;2023-04-08T07:24:40;6.90;99.90
6439;DHT22;3252;52.540;13.290;2023-04-08T07:26:45;6.90;99.90
6439;DHT22;3252;52.540;13.290;2023-04-08T07:28:49;6.90;99.90
6439;DHT22;3252;52.540;13.290;2023-04-08T07:30:51;7.00;99.90
6439;DHT22;3252;52.540;13.290;2023-04-08T07:32:53;7.10;99.90
6439;DHT22;3252;52.540;13.290;2023-04-08T07:34:58;7.20;99.90
6439;DHT22;3252;52.540;13.290;2023-04-08T07:37:00;7.30;99.90
6439;DHT22;3252;52.540;13.290;2023-04-08T07:39:03;7.30;99.90
6439;DHT22;3252;52.540;13.290;2023-04-08T07:41:05;7.40;99.90
6439;DHT22;3252;52.540;13.290;2023-04-08T07:43:07;7.50;99.90
6439;DHT22;3252;52.540;13.290;2023-04-08T07:45:11;7.50;99.90
6439;DHT22;3252;52.540;13.290;2023-04-08T07:47:14;7.60;99.90
6439;DHT22;3252;52.540;13.290;2023-04-08T07:49:16;7.60;99.90
6439;DHT22;3252;52.540;13.290;2023-04-08T07:51:19;7.60;99.90
6439;DHT22;3252;52.540;13.290;2023-04-08T07:53:21;7.50;99.90
6439;DHT22;3252;52.540;13.290;2023-04-08T07:55:24;7.60;99.90
6439;DHT22;3252;52.540;13.290;2023-04-08T07:57:26;7.60;99.90
6439;DHT22;3252;52.540;13.290;2023-04-08T07:59:29;7.50;99.90
6439;DHT22;3252;52.540;13.290;2023-04-08T08:01:32;7.50;99.90
6439;DHT22;3252;52.540;13.290;2023-04-08T08:03:36;7.50;99.90
6439;DHT22;3252;52.540;13.290;2023-04-08T08:05:38;7.50;99.90
6439;DHT22;3252;52.540;13.290;2023-04-08T08:07:41;7.30;99.90
6439;DHT22;3252;52.540;13.290;2023-04-08T08:09:43;7.30;99.90
6439;DHT22;3252;52.540;13.290;2023-04-08T08:11:45;7.40;99.90
6439;DHT22;3252;52.540;13.290;2023-04-08T08:13:48;7.50;99.90
6439;DHT22;3252;52.540;13.290;2023-04-08T08:15:51;7.70;99.90
6439;DHT22;3252;52.540;13.290;2023-04-08T08:17:55;7.80;99.90
6439;DHT22;3252;52.540;13.290;2023-04-08T08:19:58;7.90;99.90
6439;DHT22;3252;52.540;13.290;2023-04-08T08:22:00;8.00;99.90
6439;DHT22;3252;52.540;13.290;2023-04-08T08:24:03;8.10;99.90
6439;DHT22;3252;52.540;13.290;2023-04-08T08:26:07;8.20;99.90
6439;DHT22;3252;52.540;13.290;2023-04-08T08:28:09;8.20;99.90
6439;DHT22;3252;52.540;13.290;2023-04-08T08:30:12;8.10;99.90
6439;DHT22;3252;52.540;13.290;2023-04-08T08:32:14;8.20;99.90
6439;DHT22;3252;52.540;13.290;2023-04-08T08:34:18;8.10;99.90
6439;DHT22;3252;52.540;13.290;2023-04-08T08:36:20;8.00;99.90
6439;DHT22;3252;52.540;13.290;2023-04-08T08:38:23;7.90;99.90
6439;DHT22;3252;52.540;13.290;2023-04-08T08:40:25;8.00;99.90
6439;DHT22;3252;52.540;13.290;2023-04-08T08:42:27;8.10;99.90
6439;DHT22;3252;52.540;13.290;2023-04-08T08:44:30;8.20;99.90
6439;DHT22;3252;52.540;13.290;2023-04-08T08:46:32;8.50;99.90
6439;DHT22;3252;52.540;13.290;2023-04-08T08:48:35;8.60;99.90
6439;DHT22;3252;52.540;13.290;2023-04-08T08:50:39;8.70;99.90
6439;DHT22;3252;52.540;13.290;2023-04-08T08:52:47;8.80;99.90
6439;DHT22;3252;52.540;13.290;2023-04-08T08:54:56;8.80;99.90
6439;DHT22;3252;52.540;13.290;2023-04-08T08:56:59;8.90;99.90
6439;DHT22;3252;52.540;13.290;2023-04-08T08:59:01;9.00;99.90
6439;DHT22;3252;52.540;13.290;2023-04-08T09:01:34;9.20;99.90
6439;DHT22;3252;52.540;13.290;2023-04-08T09:03:37;9.10;99.90
6439;DHT22;3252;52.540;13.290;2023-04-08T09:05:46;8.90;99.90
6439;DHT22;3252;52.540;13.290;2023-04-08T09:07:49;8.70;99.90
6439;DHT22;3252;52.540;13.290;2023-04-08T09:09:52;8.70;99.90
6439;DHT22;3252;52.540;13.290;2023-04-08T09:12:02;8.80;99.90
6439;DHT22;3252;52.540;13.290;2023-04-08T09:14:05;8.90;99.90
6439;DHT22;3252;52.540;13.290;2023-04-08T09:16:10;9.00;99.90
6439;DHT22;3252;52.540;13.290;2023-04-08T09:18:21;8.90;99.90
6439;DHT22;3252;52.540;13.290;2023-04-08T09:20:24;8.90;99.90
6439;DHT22;3252;52.540;13.290;2023-04-08T09:22:27;9.10;99.90
6439;DHT22;3252;52.540;13.290;2023-04-08T09:24:30;9.20;99.90
6439;DHT22;3252;52.540;13.290;2023-04-08T09:26:33;9.10;99.90
6439;DHT22;3252;52.540;13.290;2023-04-08T09:28:35;9.10;99.90
6439;DHT22;3252;52.540;13.290;2023-04-08T09:30:37;9.00;99.90
6439;DHT22;3252;52.540;13.290;2023-04-08T09:32:46;9.10;99.90
6439;DHT22;3252;52.540;13.290;2023-04-08T09:34:50;9.10;99.90
6439;DHT22;3252;52.540;13.290;2023-04-08T09:36:53;9.20;99.90
6439;DHT22;3252;52.540;13.290;2023-04-08T09:38:56;9.10;99.90
6439;DHT22;3252;52.540;13.290;2023-04-08T09:40:59;9.10;99.90
6439;DHT22;3252;52.540;13.290;2023-04-08T09:43:08;9.30;99.90
6439;DHT22;3252;52.540;13.290;2023-04-08T09:45:12;9.30;99.90
6439;DHT22;3252;52.540;13.290;2023-04-08T09:47:18;9.10;99.90
6439;DHT22;3252;52.540;13.290;2023-04-08T09:49:25;9.10;99.90
6439;DHT22;3252;52.540;13.290;2023-04-08T09:51:32;9.10;99.90
6439;DHT22;3252;52.540;13.290;2023-04-08T09:53:40;9.10;99.90
6439;DHT22;3252;52.540;13.290;2023-04-08T09:55:49;9.10;99.90
6439;DHT22;3252;52.540;13.290;2023-04-08T09:57:57;9.20;99.90
6439;DHT22;3252;52.540;13.290;2023-04-08T10:00:07;9.30;99.90
6439;DHT22;3252;52.540;13.290;2023-04-08T10:02:23;9.30;99.90
6439;DHT22;3252;52.540;13.290;2023-04-08T10:04:28;9.20;99.90
6439;DHT22;3252;52.540;13.290;2023-04-08T10:06:35;9.10;99.90
6439;DHT22;3252;52.540;13.290;2023-04-08T10:08:38;9.10;99.90
6439;DHT22;3252;52.540;13.290;2023-04-08T10:10:41;9.20;99.90
6439;DHT22;3252;52.540;13.290;2023-04-08T10:12:44;9.30;99.90
6439;DHT22;3252;52.540;13.290;2023-04-08T10:17:24;9.30;99.90
6439;DHT22;3252;52.540;13.290;2023-04-08T10:19:37;9.40;99.90
6439;DHT22;3252;52.540;13.290;2023-04-08T10:21:41;9.40;99.90
6439;DHT22;3252;52.540;13.290;2023-04-08T10:23:56;9.30;99.90
6439;DHT22;3252;52.540;13.290;2023-04-08T10:25:59;9.30;99.90
6439;DHT22;3252;52.540;13.290;2023-04-08T10:28:25;9.20;99.90
6439;DHT22;3252;52.540;13.290;2023-04-08T10:30:43;9.20;99.90
6439;DHT22;3252;52.540;13.290;2023-04-08T10:32:45;9.70;99.90
6439;DHT22;3252;52.540;13.290;2023-04-08T10:34:52;10.10;99.90
6439;DHT22;3252;52.540;13.290;2023-04-08T10:36:56;9.90;99.90
6439;DHT22;3252;52.540;13.290;2023-04-08T10:39:01;10.10;99.90
6439;DHT22;3252;52.540;13.290;2023-04-08T10:41:04;10.10;99.90
6439;DHT22;3252;52.540;13.290;2023-04-08T10:43:06;10.10;99.90
6439;DHT22;3252;52.540;13.290;2023-04-08T10:45:09;9.80;99.90
6439;DHT22;3252;52.540;13.290;2023-04-08T10:47:11;9.90;99.90
6439;DHT22;3252;52.540;13.290;2023-04-08T10:49:14;10.40;99.90
6439;DHT22;3252;52.540;13.290;2023-04-08T10:51:17;11.50;99.90
6439;DHT22;3252;52.540;13.290;2023-04-08T10:53:25;11.80;99.90
6439;DHT22;3252;52.540;13.290;2023-04-08T10:55:28;11.90;99.90
6439;DHT22;3252;52.540;13.290;2023-04-08T10:57:32;11.50;99.90
6439;DHT22;3252;52.540;13.290;2023-04-08T10:59:35;11.50;99.90
6439;DHT22;3252;52.540;13.290;2023-04-08T11:01:39;11.30;99.90
6439;DHT22;3252;52.540;13.290;2023-04-08T11:03:42;11.40;99.90
6439;DHT22;3252;52.540;13.290;2023-04-08T11:05:45;11.30;99.90
6439;DHT22;3252;52.540;13.290;2023-04-08T11:07:47;11.40;99.90
6439;DHT22;3252;52.540;13.290;2023-04-08T11:09:51;11.50;99.90
6439;DHT22;3252;52.540;13.290;2023-04-08T11:11:53;12.00;99.90
6439;DHT22;3252;52.540;13.290;2023-04-08T11:13:56;12.00;99.90
6439;DHT22;3252;52.540;13.290;2023-04-08T11:15:59;12.70;99.90
6439;DHT22;3252;52.540;13.290;2023-04-08T11:18:02;13.70;99.90
6439;DHT22;3252;52.540;13.290;2023-04-08T11:20:07;14.10;96.70
6439;DHT22;3252;52.540;13.290;2023-04-08T11:22:12;13.50;97.60
6439;DHT22;3252;52.540;13.290;2023-04-08T11:24:14;13.00;98.20
6439;DHT22;3252;52.540;13.290;2023-04-08T11:26:18;12.90;98.60
6439;DHT22;3252;52.540;13.290;2023-04-08T11:28:21;12.80;98.00
6439;DHT22;3252;52.540;13.290;2023-04-08T11:30:23;12.20;98.60
6439;DHT22;3252;52.540;13.290;2023-04-08T11:32:26;12.40;99.90
6439;DHT22;3252;52.540;13.290;2023-04-08T11:34:29;12.10;99.90
6439;DHT22;3252;52.540;13.290;2023-04-08T11:36:32;12.10;99.70
6439;DHT22;3252;52.540;13.290;2023-04-08T11:38:38;12.00;99.50
6439;DHT22;3252;52.540;13.290;2023-04-08T11:40:51;12.00;99.30
6439;DHT22;3252;52.540;13.290;2023-04-08T11:42:55;12.10;99.70
6439;DHT22;3252;52.540;13.290;2023-04-08T11:44:58;11.90;99.90
6439;DHT22;3252;52.540;13.290;2023-04-08T11:47:00;11.90;99.50
6439;DHT22;3252;52.540;13.290;2023-04-08T11:49:04;11.60;99.90
6439;DHT22;3252;52.540;13.290;2023-04-08T11:51:07;11.70;99.90
6439;DHT22;3252;52.540;13.290;2023-04-08T11:53:16;11.50;99.90
6439;DHT22;3252;52.540;13.290;2023-04-08T11:55:25;11.50;99.90
6439;DHT22;3252;52.540;13.290;2023-04-08T11:57:28;11.50;99.90
6439;DHT22;3252;52.540;13.290;2023-04-08T11:59:32;11.50;99.90
6439;DHT22;3252;52.540;13.290;2023-04-08T12:01:35;11.40;99.90
6439;DHT22;3252;52.540;13.290;2023-04-08T12:03:37;11.30;99.90
6439;DHT22;3252;52.540;13.290;2023-04-08T12:05:39;11.20;99.90
6439;DHT22;3252;52.540;13.290;2023-04-08T12:08:07;11.30;99.90
6439;DHT22;3252;52.540;13.290;2023-04-08T12:10:10;11.40;99.90
6439;DHT22;3252;52.540;13.290;2023-04-08T12:12:12;11.60;99.90
6439;DHT22;3252;52.540;13.290;2023-04-08T12:14:14;11.70;99.90
6439;DHT22;3252;52.540;13.290;2023-04-08T12:16:18;11.70;99.90
6439;DHT22;3252;52.540;13.290;2023-04-08T12:18:21;11.60;99.90
6439;DHT22;3252;52.540;13.290;2023-04-08T12:20:23;11.80;99.90
6439;DHT22;3252;52.540;13.290;2023-04-08T12:22:25;11.90;99.60
6439;DHT22;3252;52.540;13.290;2023-04-08T12:24:28;12.10;99.50
6439;DHT22;3252;52.540;13.290;2023-04-08T12:26:30;12.10;98.60
6439;DHT22;3252;52.540;13.290;2023-04-08T12:28:32;12.20;99.10
6439;DHT22;3252;52.540;13.290;2023-04-08T12:30:35;12.20;98.90
6439;DHT22;3252;52.540;13.290;2023-04-08T12:32:39;12.20;97.60
6439;DHT22;3252;52.540;13.290;2023-04-08T12:34:42;12.40;98.00
6439;DHT22;3252;52.540;13.290;2023-04-08T12:36:44;12.30;98.70
6439;DHT22;3252;52.540;13.290;2023-04-08T12:38:47;12.50;97.90
6439;DHT22;3252;52.540;13.290;2023-04-08T12:40:49;12.60;96.90
6439;DHT22;3252;52.540;13.290;2023-04-08T12:42:52;12.80;95.60
6439;DHT22;3252;52.540;13.290;2023-04-08T12:44:54;12.90;94.00
6439;DHT22;3252;52.540;13.290;2023-04-08T12:46:57;12.90;94.30
6439;DHT22;3252;52.540;13.290;2023-04-08T12:49:00;12.80;95.40
6439;DHT22;3252;52.540;13.290;2023-04-08T12:51:03;12.70;95.60
6439;DHT22;3252;52.540;13.290;2023-04-08T12:53:05;12.60;96.20
6439;DHT22;3252;52.540;13.290;2023-04-08T12:55:09;12.60;96.30
6439;DHT22;3252;52.540;13.290;2023-04-08T12:57:11;12.40;96.80
6439;DHT22;3252;52.540;13.290;2023-04-08T12:59:14;12.30;97.30
6439;DHT22;3252;52.540;13.290;2023-04-08T13:01:16;12.60;97.10
6439;DHT22;3252;52.540;13.290;2023-04-08T13:03:18;12.60;96.90
6439;DHT22;3252;52.540;13.290;2023-04-08T13:05:22;12.80;96.50
6439;DHT22;3252;52.540;13.290;2023-04-08T13:07:24;12.70;96.80
6439;DHT22;3252;52.540;13.290;2023-04-08T13:09:26;12.70;97.40
6439;DHT22;3252;52.540;13.290;2023-04-08T13:11:31;12.60;97.70
6439;DHT22;3252;52.540;13.290;2023-04-08T13:13:34;12.20;97.80
6439;DHT22;3252;52.540;13.290;2023-04-08T13:15:36;12.10;98.50
6439;DHT22;3252;52.540;13.290;2023-04-08T13:17:38;12.20;99.30
6439;DHT22;3252;52.540;13.290;2023-04-08T13:19:41;12.40;99.40
6439;DHT22;3252;52.540;13.290;2023-04-08T13:21:45;12.30;97.80
6439;DHT22;3252;52.540;13.290;2023-04-08T13:23:47;12.50;97.40
6439;DHT22;3252;52.540;13.290;2023-04-08T13:25:49;12.60;97.10
6439;DHT22;3252;52.540;13.290;2023-04-08T13:27:51;12.50;98.00